sensor_id;sensor_type;location;lat;lon;timestamp;P1;durP1;ratioP1;P2;durP2;ratioP2
79139;SDS011;68546;59.142;37.948;2024-01-15T00:02:24;416.10;;;125.50;;
79139;SDS011;68546;59.142;37.948;2024-01-15T00:05:09;420.50;;;129.20;;
79139;SDS011;68546;59.142;37.948;2024-01-15T00:07:35;420.00;;;126.80;;
79139;SDS011;68546;59.142;37.948;2024-01-15T00:10:02;414.85;;;125.70;;
79139;SDS011;68546;59.142;37.948;2024-01-15T00:12:47;414.20;;;125.30;;
79139;SDS011;68546;59.142;37.948;2024-01-15T00:15:14;420.45;;;128.15;;
79139;SDS011;68546;59.142;37.948;2024-01-15T00:17:40;418.40;;;126.10;;
79139;SDS011;68546;59.142;37.948;2024-01-15T00:20:07;421.80;;;125.90;;
79139;SDS011;68546;59.142;37.948;2024-01-15T00:33:17;422.10;;;128.40;;
79139;SDS011;68546;59.142;37.948;2024-01-15T00:38:09;422.60;;;126.90;;
79139;SDS011;68546;59.142;37.948;2024-01-15T00:40:36;427.10;;;128.45;;
79139;SDS011;68546;59.142;37.948;2024-01-15T00:43:03;427.20;;;128.10;;
79139;SDS011;68546;59.142;37.948;2024-01-15T00:45:48;428.30;;;127.90;;
79139;SDS011;68546;59.142;37.948;2024-01-15T00:48:14;429.30;;;129.00;;
79139;SDS011;68546;59.142;37.948;2024-01-15T00:53:44;428.80;;;128.20;;
79139;SDS011;68546;59.142;37.948;2024-01-15T00:56:29;428.20;;;128.30;;
79139;SDS011;68546;59.142;37.948;2024-01-15T00:58:55;428.50;;;126.80;;
79139;SDS011;68546;59.142;37.948;2024-01-15T01:06:53;423.85;;;126.60;;
79139;SDS011;68546;59.142;37.948;2024-01-15T01:09:19;425.80;;;127.70;;
79139;SDS011;68546;59.142;37.948;2024-01-15T01:11:45;427.30;;;126.30;;
79139;SDS011;68546;59.142;37.948;2024-01-15T01:14:12;427.10;;;127.80;;
79139;SDS011;68546;59.142;37.948;2024-01-15T01:16:38;426.90;;;127.70;;
79139;SDS011;68546;59.142;37.948;2024-01-15T01:19:05;431.65;;;129.45;;
79139;SDS011;68546;59.142;37.948;2024-01-15T01:21:33;432.60;;;129.40;;
79139;SDS011;68546;59.142;37.948;2024-01-15T01:23:59;428.40;;;128.20;;
79139;SDS011;68546;59.142;37.948;2024-01-15T01:26:26;424.60;;;127.20;;
79139;SDS011;68546;59.142;37.948;2024-01-15T01:28:52;428.75;;;129.00;;
79139;SDS011;68546;59.142;37.948;2024-01-15T01:31:18;430.65;;;129.45;;
79139;SDS011;68546;59.142;37.948;2024-01-15T01:33:44;426.70;;;127.30;;
79139;SDS011;68546;59.142;37.948;2024-01-15T01:36:11;426.80;;;127.70;;
79139;SDS011;68546;59.142;37.948;2024-01-15T01:38:37;426.80;;;128.70;;
79139;SDS011;68546;59.142;37.948;2024-01-15T01:41:05;421.75;;;126.45;;
79139;SDS011;68546;59.142;37.948;2024-01-15T01:43:50;423.50;;;126.20;;
79139;SDS011;68546;59.142;37.948;2024-01-15T01:46:17;433.87;;;129.77;;
79139;SDS011;68546;59.142;37.948;2024-01-15T01:48:43;426.00;;;126.75;;
79139;SDS011;68546;59.142;37.948;2024-01-15T01:54:16;428.30;;;127.80;;
79139;SDS011;68546;59.142;37.948;2024-01-15T01:56:44;426.90;;;128.30;;
79139;SDS011;68546;59.142;37.948;2024-01-15T02:04:27;431.45;;;129.60;;
79139;SDS011;68546;59.142;37.948;2024-01-15T02:06:54;432.10;;;128.40;;
79139;SDS011;68546;59.142;37.948;2024-01-15T02:09:20;426.50;;;127.60;;
79139;SDS011;68546;59.142;37.948;2024-01-15T02:17:17;429.15;;;127.10;;
79139;SDS011;68546;59.142;37.948;2024-01-15T02:22:48;431.10;;;128.50;;
79139;SDS011;68546;59.142;37.948;2024-01-15T02:25:14;432.30;;;127.80;;
79139;SDS011;68546;59.142;37.948;2024-01-15T02:27:59;435.20;;;128.23;;
79139;SDS011;68546;59.142;37.948;2024-01-15T02:30:25;438.80;;;129.90;;
79139;SDS011;68546;59.142;37.948;2024-01-15T02:32:54;434.10;;;128.20;;
79139;SDS011;68546;59.142;37.948;2024-01-15T02:35:39;431.70;;;127.50;;
79139;SDS011;68546;59.142;37.948;2024-01-15T02:38:05;439.00;;;130.50;;
79139;SDS011;68546;59.142;37.948;2024-01-15T02:40:33;438.55;;;130.45;;
79139;SDS011;68546;59.142;37.948;2024-01-15T02:43:18;433.60;;;127.80;;
79139;SDS011;68546;59.142;37.948;2024-01-15T02:45:45;440.50;;;129.80;;
79139;SDS011;68546;59.142;37.948;2024-01-15T02:48:12;439.70;;;130.30;;
79139;SDS011;68546;59.142;37.948;2024-01-15T02:50:58;436.10;;;129.10;;
79139;SDS011;68546;59.142;37.948;2024-01-15T02:55:51;441.80;;;131.15;;
79139;SDS011;68546;59.142;37.948;2024-01-15T02:58:18;438.10;;;128.70;;
79139;SDS011;68546;59.142;37.948;2024-01-15T03:01:03;439.10;;;129.80;;
79139;SDS011;68546;59.142;37.948;2024-01-15T03:03:30;446.30;;;129.50;;
79139;SDS011;68546;59.142;37.948;2024-01-15T03:05:56;447.80;;;130.40;;
79139;SDS011;68546;59.142;37.948;2024-01-15T03:11:08;445.70;;;130.45;;
79139;SDS011;68546;59.142;37.948;2024-01-15T03:13:35;444.20;;;129.90;;
79139;SDS011;68546;59.142;37.948;2024-01-15T03:18:49;444.87;;;130.13;;
79139;SDS011;68546;59.142;37.948;2024-01-15T03:21:34;444.70;;;131.50;;
79139;SDS011;68546;59.142;37.948;2024-01-15T03:24:00;443.50;;;129.80;;
79139;SDS011;68546;59.142;37.948;2024-01-15T03:26:27;442.10;;;129.40;;
79139;SDS011;68546;59.142;37.948;2024-01-15T03:28:53;447.10;;;131.25;;
79139;SDS011;68546;59.142;37.948;2024-01-15T03:31:20;441.80;;;129.80;;
79139;SDS011;68546;59.142;37.948;2024-01-15T03:33:47;444.90;;;128.80;;
79139;SDS011;68546;59.142;37.948;2024-01-15T03:36:31;451.70;;;131.40;;
79139;SDS011;68546;59.142;37.948;2024-01-15T03:38:58;454.10;;;131.60;;
79139;SDS011;68546;59.142;37.948;2024-01-15T03:41:24;451.00;;;131.70;;
79139;SDS011;68546;59.142;37.948;2024-01-15T03:43:51;450.50;;;130.60;;
79139;SDS011;68546;59.142;37.948;2024-01-15T03:46:17;453.00;;;130.20;;
79139;SDS011;68546;59.142;37.948;2024-01-15T03:48:44;450.40;;;131.30;;
79139;SDS011;68546;59.142;37.948;2024-01-15T03:51:29;445.35;;;129.10;;
79139;SDS011;68546;59.142;37.948;2024-01-15T03:53:56;453.90;;;131.90;;
79139;SDS011;68546;59.142;37.948;2024-01-15T03:56:22;454.20;;;132.40;;
79139;SDS011;68546;59.142;37.948;2024-01-15T03:59:07;450.00;;;130.70;;
79139;SDS011;68546;59.142;37.948;2024-01-15T04:01:34;448.15;;;129.65;;
79139;SDS011;68546;59.142;37.948;2024-01-15T04:04:00;450.35;;;130.40;;
79139;SDS011;68546;59.142;37.948;2024-01-15T04:06:27;454.70;;;132.30;;
79139;SDS011;68546;59.142;37.948;2024-01-15T04:08:53;455.45;;;130.90;;
79139;SDS011;68546;59.142;37.948;2024-01-15T04:11:20;465.10;;;135.20;;
79139;SDS011;68546;59.142;37.948;2024-01-15T04:13:47;445.53;;;130.90;;
79139;SDS011;68546;59.142;37.948;2024-01-15T04:16:13;443.90;;;129.67;;
79139;SDS011;68546;59.142;37.948;2024-01-15T04:18:40;447.08;;;130.70;;
79139;SDS011;68546;59.142;37.948;2024-01-15T04:21:25;441.17;;;129.90;;
79139;SDS011;68546;59.142;37.948;2024-01-15T04:23:51;444.20;;;129.85;;
79139;SDS011;68546;59.142;37.948;2024-01-15T04:26:18;449.13;;;130.77;;
79139;SDS011;68546;59.142;37.948;2024-01-15T04:28:44;444.75;;;130.07;;
79139;SDS011;68546;59.142;37.948;2024-01-15T04:31:29;444.03;;;130.00;;
79139;SDS011;68546;59.142;37.948;2024-01-15T04:33:56;446.95;;;130.75;;
79139;SDS011;68546;59.142;37.948;2024-01-15T04:36:23;444.53;;;130.73;;
79139;SDS011;68546;59.142;37.948;2024-01-15T04:38:49;442.05;;;128.32;;
79139;SDS011;68546;59.142;37.948;2024-01-15T04:41:16;447.33;;;131.25;;
79139;SDS011;68546;59.142;37.948;2024-01-15T04:44:00;443.07;;;129.90;;
79139;SDS011;68546;59.142;37.948;2024-01-15T04:46:27;445.15;;;130.40;;
79139;SDS011;68546;59.142;37.948;2024-01-15T04:49:11;444.20;;;130.80;;
79139;SDS011;68546;59.142;37.948;2024-01-15T04:51:38;446.33;;;129.50;;
79139;SDS011;68546;59.142;37.948;2024-01-15T04:54:04;444.65;;;129.95;;
79139;SDS011;68546;59.142;37.948;2024-01-15T04:56:30;443.17;;;129.27;;
79139;SDS011;68546;59.142;37.948;2024-01-15T04:59:15;442.08;;;128.35;;
79139;SDS011;68546;59.142;37.948;2024-01-15T05:01:42;443.27;;;130.77;;
79139;SDS011;68546;59.142;37.948;2024-01-15T05:04:26;444.33;;;128.65;;
79139;SDS011;68546;59.142;37.948;2024-01-15T05:09:38;449.45;;;129.85;;
79139;SDS011;68546;59.142;37.948;2024-01-15T05:12:04;444.88;;;129.45;;
79139;SDS011;68546;59.142;37.948;2024-01-15T05:14:31;443.03;;;128.57;;
79139;SDS011;68546;59.142;37.948;2024-01-15T05:16:57;450.95;;;130.88;;
79139;SDS011;68546;59.142;37.948;2024-01-15T05:19:23;445.15;;;129.65;;
79139;SDS011;68546;59.142;37.948;2024-01-15T05:21:50;447.93;;;130.37;;
79139;SDS011;68546;59.142;37.948;2024-01-15T05:24:16;447.15;;;130.02;;
79139;SDS011;68546;59.142;37.948;2024-01-15T05:26:42;448.90;;;131.85;;
79139;SDS011;68546;59.142;37.948;2024-01-15T05:29:27;447.25;;;131.38;;
79139;SDS011;68546;59.142;37.948;2024-01-15T05:31:54;444.35;;;128.77;;
79139;SDS011;68546;59.142;37.948;2024-01-15T05:34:20;449.92;;;130.93;;
79139;SDS011;68546;59.142;37.948;2024-01-15T05:36:47;444.13;;;129.25;;
79139;SDS011;68546;59.142;37.948;2024-01-15T05:41:58;442.58;;;128.73;;
79139;SDS011;68546;59.142;37.948;2024-01-15T05:44:25;442.35;;;129.90;;
79139;SDS011;68546;59.142;37.948;2024-01-15T05:46:53;445.00;;;130.77;;
79139;SDS011;68546;59.142;37.948;2024-01-15T05:49:37;442.23;;;128.20;;
79139;SDS011;68546;59.142;37.948;2024-01-15T05:52:04;445.33;;;129.05;;
79139;SDS011;68546;59.142;37.948;2024-01-15T05:54:31;441.77;;;127.88;;
79139;SDS011;68546;59.142;37.948;2024-01-15T05:56:57;443.23;;;129.00;;
79139;SDS011;68546;59.142;37.948;2024-01-15T05:59:42;447.08;;;130.93;;
79139;SDS011;68546;59.142;37.948;2024-01-15T06:02:10;446.90;;;130.82;;
79139;SDS011;68546;59.142;37.948;2024-01-15T06:04:37;447.67;;;130.33;;
79139;SDS011;68546;59.142;37.948;2024-01-15T06:07:03;447.17;;;130.18;;
79139;SDS011;68546;59.142;37.948;2024-01-15T06:09:29;447.58;;;130.02;;
79139;SDS011;68546;59.142;37.948;2024-01-15T06:11:57;454.77;;;131.60;;
79139;SDS011;68546;59.142;37.948;2024-01-15T06:14:42;455.50;;;131.07;;
79139;SDS011;68546;59.142;37.948;2024-01-15T06:17:28;447.70;;;131.02;;
79139;SDS011;68546;59.142;37.948;2024-01-15T06:19:54;445.70;;;130.10;;
79139;SDS011;68546;59.142;37.948;2024-01-15T06:22:39;444.60;;;128.95;;
79139;SDS011;68546;59.142;37.948;2024-01-15T06:25:09;448.88;;;129.52;;
79139;SDS011;68546;59.142;37.948;2024-01-15T06:27:35;444.20;;;129.05;;
79139;SDS011;68546;59.142;37.948;2024-01-15T06:30:02;445.03;;;128.67;;
79139;SDS011;68546;59.142;37.948;2024-01-15T06:35:32;433.40;;;126.05;;
79139;SDS011;68546;59.142;37.948;2024-01-15T06:38:00;431.87;;;126.00;;
79139;SDS011;68546;59.142;37.948;2024-01-15T06:40:44;435.20;;;126.10;;
79139;SDS011;68546;59.142;37.948;2024-01-15T06:46:22;433.90;;;127.38;;
79139;SDS011;68546;59.142;37.948;2024-01-15T06:49:07;436.17;;;127.18;;
79139;SDS011;68546;59.142;37.948;2024-01-15T06:54:19;441.92;;;127.88;;
79139;SDS011;68546;59.142;37.948;2024-01-15T06:56:46;443.23;;;128.33;;
79139;SDS011;68546;59.142;37.948;2024-01-15T06:59:33;446.05;;;127.80;;
79139;SDS011;68546;59.142;37.948;2024-01-15T07:02:01;449.35;;;129.10;;
79139;SDS011;68546;59.142;37.948;2024-01-15T07:04:27;450.70;;;129.53;;
79139;SDS011;68546;59.142;37.948;2024-01-15T07:06:54;446.67;;;127.95;;
79139;SDS011;68546;59.142;37.948;2024-01-15T07:09:20;451.73;;;129.40;;
79139;SDS011;68546;59.142;37.948;2024-01-15T07:11:46;449.27;;;127.45;;
79139;SDS011;68546;59.142;37.948;2024-01-15T07:14:13;453.25;;;129.00;;
79139;SDS011;68546;59.142;37.948;2024-01-15T07:16:39;452.70;;;129.07;;
79139;SDS011;68546;59.142;37.948;2024-01-15T07:19:06;446.65;;;127.45;;
79139;SDS011;68546;59.142;37.948;2024-01-15T07:24:37;456.73;;;130.07;;
79139;SDS011;68546;59.142;37.948;2024-01-15T07:30:13;447.43;;;127.77;;
79139;SDS011;68546;59.142;37.948;2024-01-15T07:32:39;451.60;;;128.70;;
79139;SDS011;68546;59.142;37.948;2024-01-15T07:35:06;454.63;;;129.85;;
79139;SDS011;68546;59.142;37.948;2024-01-15T07:37:33;449.75;;;128.48;;
79139;SDS011;68546;59.142;37.948;2024-01-15T07:39:59;449.20;;;127.18;;
79139;SDS011;68546;59.142;37.948;2024-01-15T07:42:31;454.80;;;130.23;;
79139;SDS011;68546;59.142;37.948;2024-01-15T07:44:57;453.42;;;129.13;;
79139;SDS011;68546;59.142;37.948;2024-01-15T07:47:24;450.37;;;127.97;;
79139;SDS011;68546;59.142;37.948;2024-01-15T07:49:50;450.90;;;127.68;;
79139;SDS011;68546;59.142;37.948;2024-01-15T07:55:20;445.17;;;127.10;;
79139;SDS011;68546;59.142;37.948;2024-01-15T07:57:46;446.23;;;127.30;;
79139;SDS011;68546;59.142;37.948;2024-01-15T08:00:13;450.65;;;127.55;;
79139;SDS011;68546;59.142;37.948;2024-01-15T08:02:59;449.63;;;127.68;;
79139;SDS011;68546;59.142;37.948;2024-01-15T08:05:25;449.70;;;127.90;;
79139;SDS011;68546;59.142;37.948;2024-01-15T08:10:37;454.98;;;128.48;;
79139;SDS011;68546;59.142;37.948;2024-01-15T08:13:04;450.77;;;127.77;;
79139;SDS011;68546;59.142;37.948;2024-01-15T08:15:31;453.45;;;127.93;;
79139;SDS011;68546;59.142;37.948;2024-01-15T08:18:54;456.55;;;129.25;;
79139;SDS011;68546;59.142;37.948;2024-01-15T08:21:20;453.70;;;127.17;;
79139;SDS011;68546;59.142;37.948;2024-01-15T08:23:46;457.52;;;128.30;;
79139;SDS011;68546;59.142;37.948;2024-01-15T08:26:13;459.98;;;128.50;;
79139;SDS011;68546;59.142;37.948;2024-01-15T08:28:39;456.80;;;127.50;;
79139;SDS011;68546;59.142;37.948;2024-01-15T08:31:05;455.70;;;127.40;;
79139;SDS011;68546;59.142;37.948;2024-01-15T08:33:32;456.80;;;128.18;;
79139;SDS011;68546;59.142;37.948;2024-01-15T08:41:31;455.92;;;128.00;;
79139;SDS011;68546;59.142;37.948;2024-01-15T08:43:59;451.92;;;126.25;;
79139;SDS011;68546;59.142;37.948;2024-01-15T08:46:26;454.00;;;126.73;;
79139;SDS011;68546;59.142;37.948;2024-01-15T08:48:52;454.05;;;127.10;;
79139;SDS011;68546;59.142;37.948;2024-01-15T08:51:18;456.48;;;127.30;;
79139;SDS011;68546;59.142;37.948;2024-01-15T08:54:23;454.05;;;127.03;;
79139;SDS011;68546;59.142;37.948;2024-01-15T08:56:49;454.45;;;126.85;;
79139;SDS011;68546;59.142;37.948;2024-01-15T08:59:34;460.98;;;128.32;;
79139;SDS011;68546;59.142;37.948;2024-01-15T09:02:01;456.50;;;126.95;;
79139;SDS011;68546;59.142;37.948;2024-01-15T09:04:27;456.57;;;127.53;;
79139;SDS011;68546;59.142;37.948;2024-01-15T09:06:54;458.73;;;128.30;;
79139;SDS011;68546;59.142;37.948;2024-01-15T09:09:20;456.52;;;126.93;;
79139;SDS011;68546;59.142;37.948;2024-01-15T09:11:46;456.00;;;127.13;;
79139;SDS011;68546;59.142;37.948;2024-01-15T09:14:13;458.15;;;127.93;;
79139;SDS011;68546;59.142;37.948;2024-01-15T09:16:40;460.50;;;127.75;;
79139;SDS011;68546;59.142;37.948;2024-01-15T09:19:06;446.52;;;124.55;;
79139;SDS011;68546;59.142;37.948;2024-01-15T09:21:51;445.58;;;125.25;;
79139;SDS011;68546;59.142;37.948;2024-01-15T09:24:36;448.63;;;125.60;;
79139;SDS011;68546;59.142;37.948;2024-01-15T09:27:02;452.50;;;126.00;;
79139;SDS011;68546;59.142;37.948;2024-01-15T09:29:29;457.47;;;127.77;;
79139;SDS011;68546;59.142;37.948;2024-01-15T09:32:14;462.27;;;127.53;;
79139;SDS011;68546;59.142;37.948;2024-01-15T09:34:41;460.05;;;127.80;;
79139;SDS011;68546;59.142;37.948;2024-01-15T09:37:08;461.63;;;128.70;;
79139;SDS011;68546;59.142;37.948;2024-01-15T09:39:35;465.77;;;127.88;;
79139;SDS011;68546;59.142;37.948;2024-01-15T09:42:01;465.30;;;128.60;;
79139;SDS011;68546;59.142;37.948;2024-01-15T09:44:29;470.75;;;130.00;;
79139;SDS011;68546;59.142;37.948;2024-01-15T09:46:55;469.52;;;129.60;;
79139;SDS011;68546;59.142;37.948;2024-01-15T09:52:08;470.35;;;129.55;;
79139;SDS011;68546;59.142;37.948;2024-01-15T09:54:36;469.37;;;129.67;;
79139;SDS011;68546;59.142;37.948;2024-01-15T09:57:40;470.27;;;129.85;;
79139;SDS011;68546;59.142;37.948;2024-01-15T10:00:07;473.15;;;130.18;;
79139;SDS011;68546;59.142;37.948;2024-01-15T10:02:36;469.83;;;129.53;;
79139;SDS011;68546;59.142;37.948;2024-01-15T10:05:04;475.27;;;130.65;;
79139;SDS011;68546;59.142;37.948;2024-01-15T10:07:49;480.50;;;132.00;;
79139;SDS011;68546;59.142;37.948;2024-01-15T10:10:17;476.40;;;130.15;;
79139;SDS011;68546;59.142;37.948;2024-01-15T10:12:43;479.33;;;131.13;;
79139;SDS011;68546;59.142;37.948;2024-01-15T10:15:10;486.13;;;133.27;;
79139;SDS011;68546;59.142;37.948;2024-01-15T10:17:38;477.63;;;130.77;;
79139;SDS011;68546;59.142;37.948;2024-01-15T10:20:11;479.80;;;129.93;;
79139;SDS011;68546;59.142;37.948;2024-01-15T10:22:41;479.98;;;130.88;;
79139;SDS011;68546;59.142;37.948;2024-01-15T10:25:17;478.83;;;131.43;;
79139;SDS011;68546;59.142;37.948;2024-01-15T10:27:58;480.53;;;131.83;;
79139;SDS011;68546;59.142;37.948;2024-01-15T10:30:30;480.08;;;132.45;;
79139;SDS011;68546;59.142;37.948;2024-01-15T10:33:01;481.58;;;132.38;;
79139;SDS011;68546;59.142;37.948;2024-01-15T10:35:30;482.50;;;132.27;;
79139;SDS011;68546;59.142;37.948;2024-01-15T10:38:16;480.80;;;131.93;;
79139;SDS011;68546;59.142;37.948;2024-01-15T10:40:46;483.30;;;134.20;;
79139;SDS011;68546;59.142;37.948;2024-01-15T10:43:12;477.08;;;130.57;;
79139;SDS011;68546;59.142;37.948;2024-01-15T10:45:39;478.40;;;131.90;;
79139;SDS011;68546;59.142;37.948;2024-01-15T10:48:05;479.17;;;131.27;;
79139;SDS011;68546;59.142;37.948;2024-01-15T10:50:33;483.27;;;132.70;;
79139;SDS011;68546;59.142;37.948;2024-01-15T10:52:59;482.97;;;132.60;;
79139;SDS011;68546;59.142;37.948;2024-01-15T10:55:28;485.50;;;133.35;;
79139;SDS011;68546;59.142;37.948;2024-01-15T10:57:57;479.17;;;130.93;;
79139;SDS011;68546;59.142;37.948;2024-01-15T11:00:23;481.50;;;132.25;;
79139;SDS011;68546;59.142;37.948;2024-01-15T11:02:51;480.27;;;132.02;;
79139;SDS011;68546;59.142;37.948;2024-01-15T11:05:25;480.80;;;131.65;;
79139;SDS011;68546;59.142;37.948;2024-01-15T11:07:54;480.55;;;132.23;;
79139;SDS011;68546;59.142;37.948;2024-01-15T11:10:37;469.17;;;129.10;;
79139;SDS011;68546;59.142;37.948;2024-01-15T11:13:05;468.10;;;128.48;;
79139;SDS011;68546;59.142;37.948;2024-01-15T11:15:37;469.95;;;128.85;;
79139;SDS011;68546;59.142;37.948;2024-01-15T11:18:20;470.03;;;128.50;;
79139;SDS011;68546;59.142;37.948;2024-01-15T11:23:45;470.42;;;129.27;;
79139;SDS011;68546;59.142;37.948;2024-01-15T11:26:30;468.73;;;130.00;;
79139;SDS011;68546;59.142;37.948;2024-01-15T11:29:00;464.88;;;128.63;;
79139;SDS011;68546;59.142;37.948;2024-01-15T11:34:08;467.08;;;127.40;;
79139;SDS011;68546;59.142;37.948;2024-01-15T11:42:02;466.33;;;128.07;;
79139;SDS011;68546;59.142;37.948;2024-01-15T11:44:29;466.90;;;127.73;;
79139;SDS011;68546;59.142;37.948;2024-01-15T11:47:00;468.90;;;128.60;;
79139;SDS011;68546;59.142;37.948;2024-01-15T11:49:56;468.73;;;128.40;;
79139;SDS011;68546;59.142;37.948;2024-01-15T11:52:25;466.00;;;128.95;;
79139;SDS011;68546;59.142;37.948;2024-01-15T11:58:16;467.70;;;128.38;;
79139;SDS011;68546;59.142;37.948;2024-01-15T12:00:44;462.25;;;127.22;;
79139;SDS011;68546;59.142;37.948;2024-01-15T12:03:31;462.97;;;127.10;;
79139;SDS011;68546;59.142;37.948;2024-01-15T12:05:59;467.35;;;128.20;;
79139;SDS011;68546;59.142;37.948;2024-01-15T12:08:26;467.17;;;128.02;;
79139;SDS011;68546;59.142;37.948;2024-01-15T12:10:53;466.63;;;129.70;;
79139;SDS011;68546;59.142;37.948;2024-01-15T12:13:20;462.20;;;125.75;;
79139;SDS011;68546;59.142;37.948;2024-01-15T12:16:05;464.80;;;126.28;;
79139;SDS011;68546;59.142;37.948;2024-01-15T12:18:31;466.40;;;127.75;;
79139;SDS011;68546;59.142;37.948;2024-01-15T12:20:58;466.73;;;128.10;;
79139;SDS011;68546;59.142;37.948;2024-01-15T12:23:25;467.75;;;128.13;;
79139;SDS011;68546;59.142;37.948;2024-01-15T12:25:54;465.60;;;127.75;;
79139;SDS011;68546;59.142;37.948;2024-01-15T12:34:14;462.77;;;126.90;;
79139;SDS011;68546;59.142;37.948;2024-01-15T12:36:59;461.63;;;126.83;;
79139;SDS011;68546;59.142;37.948;2024-01-15T12:39:26;464.75;;;126.70;;
79139;SDS011;68546;59.142;37.948;2024-01-15T12:41:52;466.77;;;126.40;;
79139;SDS011;68546;59.142;37.948;2024-01-15T12:44:19;465.30;;;127.30;;
79139;SDS011;68546;59.142;37.948;2024-01-15T12:46:45;464.70;;;127.53;;
79139;SDS011;68546;59.142;37.948;2024-01-15T12:49:12;464.67;;;127.97;;
79139;SDS011;68546;59.142;37.948;2024-01-15T12:51:39;462.10;;;126.07;;
79139;SDS011;68546;59.142;37.948;2024-01-15T12:54:05;464.20;;;126.27;;
79139;SDS011;68546;59.142;37.948;2024-01-15T12:56:32;463.70;;;125.57;;
79139;SDS011;68546;59.142;37.948;2024-01-15T12:58:58;463.50;;;126.18;;
79139;SDS011;68546;59.142;37.948;2024-01-15T13:01:25;466.90;;;127.13;;
79139;SDS011;68546;59.142;37.948;2024-01-15T13:06:36;463.75;;;126.93;;
79139;SDS011;68546;59.142;37.948;2024-01-15T13:09:03;466.63;;;127.43;;
79139;SDS011;68546;59.142;37.948;2024-01-15T13:11:32;465.75;;;127.55;;
79139;SDS011;68546;59.142;37.948;2024-01-15T13:13:59;466.77;;;127.22;;
79139;SDS011;68546;59.142;37.948;2024-01-15T13:16:43;461.15;;;126.63;;
79139;SDS011;68546;59.142;37.948;2024-01-15T13:19:29;463.60;;;125.60;;
79139;SDS011;68546;59.142;37.948;2024-01-15T13:21:55;462.67;;;127.30;;
79139;SDS011;68546;59.142;37.948;2024-01-15T13:24:24;460.25;;;124.93;;
79139;SDS011;68546;59.142;37.948;2024-01-15T13:26:50;461.40;;;125.33;;
79139;SDS011;68546;59.142;37.948;2024-01-15T13:29:17;461.33;;;125.57;;
79139;SDS011;68546;59.142;37.948;2024-01-15T13:31:44;462.52;;;125.50;;
79139;SDS011;68546;59.142;37.948;2024-01-15T13:34:12;465.85;;;127.50;;
79139;SDS011;68546;59.142;37.948;2024-01-15T13:36:38;467.40;;;127.45;;
79139;SDS011;68546;59.142;37.948;2024-01-15T13:39:05;469.38;;;129.40;;
79139;SDS011;68546;59.142;37.948;2024-01-15T13:41:34;461.70;;;125.20;;
79139;SDS011;68546;59.142;37.948;2024-01-15T13:44:01;465.47;;;125.90;;
79139;SDS011;68546;59.142;37.948;2024-01-15T13:46:28;462.23;;;124.82;;
79139;SDS011;68546;59.142;37.948;2024-01-15T13:52:03;461.87;;;126.57;;
79139;SDS011;68546;59.142;37.948;2024-01-15T13:54:30;464.40;;;126.47;;
79139;SDS011;68546;59.142;37.948;2024-01-15T13:56:56;463.35;;;125.70;;
79139;SDS011;68546;59.142;37.948;2024-01-15T13:59:43;464.88;;;126.35;;
79139;SDS011;68546;59.142;37.948;2024-01-15T14:02:09;463.25;;;126.40;;
79139;SDS011;68546;59.142;37.948;2024-01-15T14:04:35;466.60;;;126.80;;
79139;SDS011;68546;59.142;37.948;2024-01-15T14:07:02;464.08;;;125.90;;
79139;SDS011;68546;59.142;37.948;2024-01-15T14:09:30;460.60;;;125.47;;
79139;SDS011;68546;59.142;37.948;2024-01-15T14:11:57;466.10;;;126.47;;
79139;SDS011;68546;59.142;37.948;2024-01-15T14:14:23;460.45;;;124.20;;
79139;SDS011;68546;59.142;37.948;2024-01-15T14:16:50;460.77;;;125.10;;
79139;SDS011;68546;59.142;37.948;2024-01-15T14:19:16;464.50;;;125.15;;
79139;SDS011;68546;59.142;37.948;2024-01-15T14:24:27;462.83;;;124.97;;
79139;SDS011;68546;59.142;37.948;2024-01-15T14:26:53;463.10;;;125.28;;
79139;SDS011;68546;59.142;37.948;2024-01-15T14:29:20;467.27;;;127.15;;
79139;SDS011;68546;59.142;37.948;2024-01-15T14:31:48;466.83;;;126.15;;
79139;SDS011;68546;59.142;37.948;2024-01-15T14:34:14;468.10;;;126.80;;
79139;SDS011;68546;59.142;37.948;2024-01-15T14:36:41;470.30;;;126.40;;
79139;SDS011;68546;59.142;37.948;2024-01-15T14:39:07;469.40;;;126.25;;
79139;SDS011;68546;59.142;37.948;2024-01-15T14:41:35;471.57;;;127.00;;
79139;SDS011;68546;59.142;37.948;2024-01-15T14:44:01;469.70;;;125.63;;
79139;SDS011;68546;59.142;37.948;2024-01-15T14:46:29;471.85;;;126.82;;
79139;SDS011;68546;59.142;37.948;2024-01-15T14:48:55;472.75;;;127.18;;
79139;SDS011;68546;59.142;37.948;2024-01-15T14:51:22;471.33;;;127.72;;
79139;SDS011;68546;59.142;37.948;2024-01-15T14:53:49;472.05;;;128.85;;
79139;SDS011;68546;59.142;37.948;2024-01-15T14:56:15;469.30;;;127.15;;
79139;SDS011;68546;59.142;37.948;2024-01-15T14:58:41;470.83;;;126.67;;
79139;SDS011;68546;59.142;37.948;2024-01-15T15:01:08;462.13;;;124.40;;
79139;SDS011;68546;59.142;37.948;2024-01-15T15:03:37;451.98;;;122.95;;
79139;SDS011;68546;59.142;37.948;2024-01-15T15:06:04;454.60;;;122.43;;
79139;SDS011;68546;59.142;37.948;2024-01-15T15:08:30;456.88;;;123.03;;
79139;SDS011;68546;59.142;37.948;2024-01-15T15:10:57;457.85;;;124.18;;
79139;SDS011;68546;59.142;37.948;2024-01-15T15:13:23;457.00;;;123.60;;
79139;SDS011;68546;59.142;37.948;2024-01-15T15:15:52;457.05;;;124.57;;
79139;SDS011;68546;59.142;37.948;2024-01-15T15:18:22;461.00;;;125.47;;
79139;SDS011;68546;59.142;37.948;2024-01-15T15:20:48;456.52;;;122.00;;
79139;SDS011;68546;59.142;37.948;2024-01-15T15:23:15;457.33;;;123.13;;
79139;SDS011;68546;59.142;37.948;2024-01-15T15:25:43;464.02;;;125.90;;
79139;SDS011;68546;59.142;37.948;2024-01-15T15:28:09;459.33;;;123.82;;
79139;SDS011;68546;59.142;37.948;2024-01-15T15:30:37;457.83;;;122.47;;
79139;SDS011;68546;59.142;37.948;2024-01-15T15:33:04;459.58;;;124.30;;
79139;SDS011;68546;59.142;37.948;2024-01-15T15:35:31;461.52;;;124.28;;
79139;SDS011;68546;59.142;37.948;2024-01-15T15:38:16;457.70;;;123.28;;
79139;SDS011;68546;59.142;37.948;2024-01-15T15:40:43;462.27;;;124.35;;
79139;SDS011;68546;59.142;37.948;2024-01-15T15:43:28;460.70;;;124.70;;
79139;SDS011;68546;59.142;37.948;2024-01-15T15:45:55;461.35;;;124.63;;
79139;SDS011;68546;59.142;37.948;2024-01-15T15:48:25;455.77;;;121.40;;
79139;SDS011;68546;59.142;37.948;2024-01-15T15:50:52;461.38;;;124.07;;